createdAt,value
2018-10-12T00:00:16.499Z,99.99
2018-10-12T00:01:15.792Z,99.99
2018-10-12T00:02:37.379Z,99.99
2018-10-12T00:03:37.774Z,99.99
2018-10-12T00:04:59.433Z,99.99
2018-10-12T00:06:21.175Z,99.99
2018-10-12T00:07:21.319Z,99.99
2018-10-12T00:08:21.666Z,99.99
2018-10-12T00:09:21.965Z,99.99
2018-10-12T00:10:21.256Z,99.99
2018-10-12T00:11:21.561Z,99.99
2018-10-12T00:12:43.109Z,99.99
2018-10-12T00:14:04.622Z,99.99
2018-10-12T00:15:04.935Z,99.99
2018-10-12T00:16:05.439Z,99.99
2018-10-12T00:17:05.149Z,99.99
2018-10-12T00:18:05.511Z,99.99
2018-10-12T00:19:04.886Z,99.99
2018-10-12T00:20:05.251Z,99.99
2018-10-12T00:21:05.543Z,99.99
2018-10-12T00:22:04.954Z,99.99
2018-10-12T00:23:05.113Z,99.99
2018-10-12T00:24:26.426Z,99.99
2018-10-12T00:26:09.359Z,99.99
2018-10-12T00:27:30.833Z,99.99
2018-10-12T00:28:31.202Z,99.99
2018-10-12T00:29:31.405Z,99.99
2018-10-12T00:30:31.749Z,99.99
2018-10-12T00:31:52.191Z,99.99
2018-10-12T00:32:52.540Z,99.99
2018-10-12T00:33:52.911Z,99.99
2018-10-12T00:34:52.403Z,99.99
2018-10-12T00:35:52.889Z,99.99
2018-10-12T00:36:53.052Z,99.99
2018-10-12T00:37:52.484Z,99.99
2018-10-12T00:39:14.121Z,99.99
2018-10-12T00:40:14.529Z,99.99
2018-10-12T00:41:14.785Z,99.99
2018-10-12T00:42:13.976Z,99.99
2018-10-12T00:43:14.069Z,99.99
2018-10-12T00:44:14.342Z,99.99
2018-10-12T00:45:14.786Z,99.99
2018-10-12T00:46:32.173Z,99.99
2018-10-12T00:47:53.476Z,99.99
2018-10-12T00:48:53.927Z,99.99
2018-10-12T00:49:54.512Z,99.99
2018-10-12T00:50:53.846Z,99.99
2018-10-12T00:51:54.237Z,99.99
2018-10-12T00:52:53.548Z,99.99
2018-10-12T00:53:53.732Z,99.99
2018-10-12T00:54:54.222Z,99.99
2018-10-12T00:55:53.236Z,99.99
2018-10-12T00:56:53.232Z,99.99
2018-10-12T00:57:53.481Z,99.99
2018-10-12T00:58:53.764Z,99.99
2018-10-12T00:59:54.130Z,99.99
2018-10-12T01:00:53.388Z,99.99
2018-10-12T01:01:53.855Z,99.99
2018-10-12T01:02:53.988Z,99.99
2018-10-12T01:03:54.260Z,99.99
2018-10-12T01:04:53.599Z,99.99
2018-10-12T01:05:53.757Z,99.99
2018-10-12T01:06:55.286Z,99.99
2018-10-12T01:07:53.566Z,99.99
2018-10-12T01:08:53.987Z,99.99
2018-10-12T01:09:53.388Z,99.99
2018-10-12T01:10:53.683Z,99.99
2018-10-12T01:11:53.927Z,99.99
2018-10-12T01:12:54.178Z,99.99
2018-10-12T01:13:53.508Z,99.99
2018-10-12T01:14:53.910Z,99.99
2018-10-12T01:16:15.394Z,99.99
2018-10-12T01:17:15.809Z,99.99
2018-10-12T01:18:37.089Z,99.99
2018-10-12T01:19:58.507Z,99.99
2018-10-12T01:20:58.722Z,99.99
2018-10-12T01:21:59.155Z,99.99
2018-10-12T01:22:59.329Z,99.99
2018-10-12T01:23:59.441Z,99.99
2018-10-12T01:24:58.985Z,99.99
2018-10-12T01:25:59.195Z,99.99
2018-10-12T01:26:59.291Z,99.99
2018-10-12T01:27:59.596Z,99.99
2018-10-12T01:28:58.681Z,99.99
2018-10-12T01:29:59.015Z,99.99
2018-10-12T01:30:59.276Z,99.99
2018-10-12T01:31:58.655Z,99.99
2018-10-12T01:32:58.907Z,99.99
2018-10-12T01:33:59.211Z,99.99
2018-10-12T01:34:59.475Z,99.99
2018-10-12T01:35:58.969Z,99.99
2018-10-12T01:37:20.251Z,99.99
2018-10-12T01:38:20.500Z,99.99
2018-10-12T01:39:20.686Z,99.99
2018-10-12T01:40:21.114Z,99.99
2018-10-12T01:41:21.356Z,99.99
2018-10-12T01:42:20.539Z,99.99
2018-10-12T01:43:20.937Z,99.99
2018-10-12T01:44:20.978Z,99.99
2018-10-12T01:45:21.345Z,99.99
2018-10-12T01:46:20.664Z,99.99
2018-10-12T01:47:20.875Z,99.99
2018-10-12T01:48:21.134Z,99.99
2018-10-12T01:49:21.368Z,99.99
2018-10-12T01:50:20.770Z,99.99
2018-10-12T01:51:21.080Z,99.99
2018-10-12T01:52:20.473Z,99.99
2018-10-12T01:53:20.798Z,99.99
2018-10-12T01:54:21.133Z,99.99
2018-10-12T01:55:21.373Z,99.99
2018-10-12T01:56:20.878Z,99.99
2018-10-12T01:57:21.033Z,99.99
2018-10-12T01:58:20.289Z,99.99
2018-10-12T01:59:41.969Z,99.99
2018-10-12T02:00:42.377Z,99.99
2018-10-12T02:01:42.644Z,99.99
2018-10-12T02:02:41.875Z,99.99
2018-10-12T02:03:42.186Z,99.99
2018-10-12T02:04:42.481Z,99.99
2018-10-12T02:05:42.624Z,99.99
2018-10-12T02:06:42.719Z,99.99
2018-10-12T02:07:41.958Z,99.99
2018-10-12T02:08:42.142Z,99.99
2018-10-12T02:09:42.554Z,99.99
2018-10-12T02:10:41.953Z,99.99
2018-10-12T02:11:42.129Z,99.99
2018-10-12T02:12:42.307Z,99.99
2018-10-12T02:13:42.687Z,99.99
2018-10-12T02:14:42.133Z,99.99
2018-10-12T02:15:42.582Z,99.99
2018-10-12T02:17:03.157Z,99.99
2018-10-12T02:18:03.524Z,99.99
2018-10-12T02:19:03.719Z,99.99
2018-10-12T02:20:03.158Z,99.99
2018-10-12T02:21:03.338Z,99.99
2018-10-12T02:22:24.412Z,99.99
2018-10-12T02:23:25.657Z,99.99
2018-10-12T02:24:46.088Z,99.99
2018-10-12T02:25:46.140Z,99.99
2018-10-12T02:26:46.577Z,99.99
2018-10-12T02:27:46.695Z,99.99
2018-10-12T02:28:46.095Z,99.99
2018-10-12T02:29:46.268Z,99.99
2018-10-12T02:30:46.560Z,99.99
2018-10-12T02:32:07.796Z,99.99
2018-10-12T02:33:08.289Z,99.99
2018-10-12T02:34:08.399Z,99.99
2018-10-12T02:35:08.572Z,99.99
2018-10-12T02:36:08.885Z,99.99
2018-10-12T02:37:07.996Z,99.99
2018-10-12T02:38:29.225Z,99.99
2018-10-12T02:39:29.373Z,99.99
2018-10-12T02:40:29.809Z,99.99
2018-10-12T02:41:30.080Z,99.99
2018-10-12T02:42:29.408Z,99.99
2018-10-12T02:43:29.601Z,99.99
2018-10-12T02:44:29.628Z,99.99
2018-10-12T02:45:30.137Z,99.99
2018-10-12T02:46:50.687Z,99.99
2018-10-12T02:47:50.927Z,99.99
2018-10-12T02:48:51.039Z,99.99
2018-10-12T02:49:51.330Z,99.99
2018-10-12T02:50:51.517Z,99.99
2018-10-12T02:51:50.872Z,99.99
2018-10-12T02:52:51.043Z,99.99
2018-10-12T02:53:51.289Z,99.99
2018-10-12T02:54:50.760Z,99.99
2018-10-12T02:55:51.057Z,99.99
2018-10-12T02:56:51.128Z,99.99
2018-10-12T02:57:51.374Z,99.99
2018-10-12T02:58:50.679Z,99.99
2018-10-12T02:59:50.845Z,99.99
2018-10-12T03:00:51.133Z,99.99
2018-10-12T03:01:51.355Z,99.99
2018-10-12T03:02:50.667Z,99.99
2018-10-12T03:03:50.916Z,99.99
2018-10-12T03:04:51.085Z,99.99
2018-10-12T03:05:51.239Z,99.99
2018-10-12T03:06:51.360Z,99.99
2018-10-12T03:07:50.619Z,99.99
2018-10-12T03:08:50.806Z,99.99
2018-10-12T03:09:51.061Z,99.99
2018-10-12T03:10:51.365Z,99.99
2018-10-12T03:11:50.779Z,99.99
2018-10-12T03:12:51.143Z,99.99
2018-10-12T03:13:51.303Z,99.99
2018-10-12T03:14:50.607Z,99.99
2018-10-12T03:15:50.740Z,99.99
2018-10-12T03:16:51.162Z,99.99
2018-10-12T03:17:51.324Z,99.99
2018-10-12T03:18:50.590Z,99.99
2018-10-12T03:20:33.363Z,99.99
2018-10-12T03:21:33.643Z,99.99
2018-10-12T03:22:33.725Z,99.99
2018-10-12T03:23:33.856Z,99.99
2018-10-12T03:24:34.113Z,99.99
2018-10-12T03:25:34.287Z,99.99
2018-10-12T03:26:33.351Z,99.99
2018-10-12T03:27:33.679Z,99.99
2018-10-12T03:28:33.884Z,99.99
2018-10-12T03:29:55.396Z,99.99
2018-10-12T03:30:55.513Z,99.99
2018-10-12T03:31:55.858Z,99.99
2018-10-12T03:32:55.453Z,99.99
2018-10-12T03:33:55.918Z,99.99
2018-10-12T03:34:56.021Z,99.99
2018-10-12T03:35:55.169Z,99.99
2018-10-12T03:36:55.285Z,99.99
2018-10-12T03:37:55.693Z,99.99
2018-10-12T03:38:55.988Z,99.99
2018-10-12T03:40:16.448Z,99.99
2018-10-12T03:41:38.096Z,99.99
2018-10-12T03:42:50.885Z,99.99
2018-10-12T03:43:38.887Z,99.99
2018-10-12T03:44:39.321Z,99.99
2018-10-12T03:45:39.525Z,99.99
2018-10-12T03:46:40.120Z,99.99
2018-10-12T03:47:39.342Z,99.99
2018-10-12T03:48:59.524Z,99.99
2018-10-12T03:49:59.600Z,99.99
2018-10-12T03:50:59.855Z,99.99
2018-10-12T03:52:00.770Z,99.99
2018-10-12T03:52:59.932Z,99.99
2018-10-12T03:54:00.078Z,99.99
2018-10-12T03:55:00.364Z,99.99
2018-10-12T03:55:59.476Z,99.99
2018-10-12T03:56:59.921Z,99.99
2018-10-12T03:58:00.133Z,99.99
2018-10-12T03:59:00.191Z,99.99
2018-10-12T04:00:00.443Z,99.99
2018-10-12T04:00:59.679Z,99.99
2018-10-12T04:02:00.055Z,99.99
2018-10-12T04:03:00.532Z,99.99
2018-10-12T04:03:59.713Z,99.99
2018-10-12T04:05:00.016Z,99.99
2018-10-12T04:06:21.672Z,99.99
2018-10-12T04:07:22.037Z,99.99
2018-10-12T04:08:22.349Z,99.99
2018-10-12T04:09:22.523Z,99.99
2018-10-12T04:10:43.136Z,99.99
2018-10-12T04:11:43.355Z,99.99
2018-10-12T04:12:43.915Z,99.99
2018-10-12T04:13:43.367Z,99.99
2018-10-12T04:15:04.690Z,99.99
2018-10-12T04:16:04.951Z,99.99
2018-10-12T04:17:05.135Z,99.99
2018-10-12T04:18:05.615Z,99.99
2018-10-12T04:19:26.421Z,99.99
2018-10-12T04:20:26.696Z,99.99
2018-10-12T04:21:27.248Z,99.99
2018-10-12T04:22:26.671Z,99.99
2018-10-12T04:23:26.973Z,99.99
2018-10-12T04:24:47.695Z,99.99
2018-10-12T04:25:48.077Z,99.99
2018-10-12T04:26:48.547Z,99.99
2018-10-12T04:27:48.036Z,99.99
2018-10-12T04:28:48.113Z,99.99
2018-10-12T04:29:48.455Z,99.99
2018-10-12T04:30:47.732Z,99.99
2018-10-12T04:31:48.132Z,99.99
2018-10-12T04:32:48.488Z,99.99
2018-10-12T04:33:47.933Z,99.99
2018-10-12T04:34:48.181Z,99.99
2018-10-12T04:35:48.263Z,99.99
2018-10-12T04:36:48.659Z,99.99
2018-10-12T04:37:47.906Z,99.99
2018-10-12T04:38:48.254Z,99.99
2018-10-12T04:39:48.637Z,99.99
2018-10-12T04:40:48.098Z,99.99
2018-10-12T04:41:48.462Z,99.99
2018-10-12T04:42:47.609Z,99.99
2018-10-12T04:43:47.902Z,99.99
2018-10-12T04:44:48.227Z,99.99
2018-10-12T04:46:08.609Z,99.99
2018-10-12T04:47:30.310Z,99.99
2018-10-12T04:48:30.614Z,99.99
2018-10-12T04:49:31.055Z,99.99
2018-10-12T04:50:51.493Z,99.99
2018-10-12T04:51:51.789Z,99.99
2018-10-12T04:52:52.218Z,99.99
2018-10-12T04:53:52.733Z,99.99
2018-10-12T04:54:52.258Z,99.99
2018-10-12T04:55:52.514Z,99.99
2018-10-12T04:56:52.011Z,99.99
2018-10-12T04:57:52.504Z,99.99
2018-10-12T04:58:51.791Z,99.99
2018-10-12T04:59:52.020Z,99.99
2018-10-12T05:00:52.371Z,99.99
2018-10-12T05:02:12.994Z,99.99
2018-10-12T05:03:13.283Z,99.99
2018-10-12T05:04:13.842Z,99.99
2018-10-12T05:05:13.185Z,99.99
2018-10-12T05:06:13.656Z,99.99
2018-10-12T05:07:13.957Z,99.99
2018-10-12T05:08:13.211Z,99.99
2018-10-12T05:09:13.676Z,99.99
2018-10-12T05:10:34.402Z,99.99
2018-10-12T05:11:56.019Z,99.99
2018-10-12T05:12:56.184Z,99.99
2018-10-12T05:13:56.520Z,99.99
2018-10-12T05:14:56.949Z,99.99
2018-10-12T05:15:56.297Z,99.99
2018-10-12T05:16:56.573Z,99.99
2018-10-12T05:17:56.608Z,99.99
2018-10-12T05:18:57.147Z,99.99
2018-10-12T05:19:56.360Z,99.99
2018-10-12T05:20:56.677Z,99.99
2018-10-12T05:21:57.292Z,99.99
2018-10-12T05:22:56.696Z,99.99
2018-10-12T05:23:57.064Z,99.99
2018-10-12T05:24:56.596Z,99.99
2018-10-12T05:25:56.960Z,99.99
2018-10-12T05:26:56.370Z,99.99
2018-10-12T05:27:56.807Z,99.99
2018-10-12T05:28:56.140Z,99.99
2018-10-12T05:29:56.657Z,99.99
2018-10-12T05:30:56.180Z,99.99
2018-10-12T05:31:56.639Z,99.99
2018-10-12T05:32:57.162Z,99.99
2018-10-12T05:33:56.655Z,99.99
2018-10-12T05:34:57.052Z,99.99
2018-10-12T05:35:56.658Z,99.99
2018-10-12T05:36:57.140Z,99.99
2018-10-12T05:38:17.822Z,99.99
2018-10-12T05:39:18.253Z,99.99
2018-10-12T05:41:01.152Z,99.99
2018-10-12T05:42:01.661Z,99.99
2018-10-12T05:43:01.971Z,99.99
2018-10-12T05:44:01.233Z,99.99
2018-10-12T05:45:01.585Z,99.99
2018-10-12T05:46:01.903Z,99.99
2018-10-12T05:47:01.390Z,99.99
2018-10-12T05:48:01.659Z,99.99
2018-10-12T05:49:02.083Z,99.99
2018-10-12T05:50:01.703Z,99.99
2018-10-12T05:51:01.076Z,99.99
2018-10-12T05:52:01.499Z,99.99
2018-10-12T05:53:02.012Z,99.99
2018-10-12T05:54:22.928Z,99.99
2018-10-12T05:55:23.457Z,99.99
2018-10-12T05:56:45.095Z,99.99
2018-10-12T05:57:45.386Z,99.99
2018-10-12T05:58:45.788Z,99.99
2018-10-12T05:59:45.196Z,99.99
2018-10-12T06:00:45.648Z,99.99
2018-10-12T06:01:46.038Z,99.99
2018-10-12T06:02:45.553Z,99.99
2018-10-12T06:03:45.960Z,99.99
2018-10-12T06:04:45.424Z,99.99
2018-10-12T06:05:45.806Z,99.99
2018-10-12T06:06:45.213Z,99.99
2018-10-12T06:07:45.773Z,99.99
2018-10-12T06:08:44.965Z,99.99
2018-10-12T06:09:45.701Z,99.99
2018-10-12T06:10:45.323Z,99.99
2018-10-12T06:11:45.886Z,99.99
2018-10-12T06:12:45.482Z,99.99
2018-10-12T06:13:46.051Z,99.99
2018-10-12T06:14:45.594Z,99.99
2018-10-12T06:15:46.215Z,99.99
2018-10-12T06:16:46.066Z,99.99
2018-10-12T06:17:45.363Z,99.99
2018-10-12T06:18:45.782Z,99.99
2018-10-12T06:19:45.346Z,99.99
2018-10-12T06:20:45.609Z,99.99
2018-10-12T06:21:45.095Z,99.99
2018-10-12T06:22:45.608Z,99.99
2018-10-12T06:23:45.881Z,99.99
2018-10-12T06:25:07.096Z,99.99
2018-10-12T06:26:07.517Z,99.99
2018-10-12T06:27:08.047Z,99.99
2018-10-12T06:28:07.592Z,99.99
2018-10-12T06:29:28.651Z,99.99
2018-10-12T06:30:29.020Z,99.99
2018-10-12T06:31:29.277Z,99.99
2018-10-12T06:32:28.825Z,99.99
2018-10-12T06:33:50.393Z,99.99
2018-10-12T06:35:12.413Z,99.99
2018-10-12T06:36:12.722Z,99.99
2018-10-12T06:37:13.013Z,99.99
2018-10-12T06:38:12.406Z,99.99
2018-10-12T06:39:34.393Z,99.99
2018-10-12T06:40:56.486Z,99.99
2018-10-12T06:41:57.198Z,99.99
2018-10-12T06:43:18.225Z,98.77
2018-10-12T06:44:18.615Z,98.49
2018-10-12T06:45:19.030Z,97.91
2018-10-12T06:46:18.503Z,97.38
2018-10-12T06:47:18.953Z,96.80
2018-10-12T06:48:18.351Z,95.84
2018-10-12T06:49:18.772Z,95.74
2018-10-12T06:50:18.294Z,95.94
2018-10-12T06:51:18.738Z,95.94
2018-10-12T06:52:18.251Z,95.89
2018-10-12T06:53:40.065Z,96.08
2018-10-12T06:54:40.541Z,96.17
2018-10-12T06:56:02.627Z,96.27
2018-10-12T06:57:03.091Z,96.08
2018-10-12T06:58:02.628Z,96.94
2018-10-12T06:59:02.995Z,97.14
2018-10-12T07:00:03.482Z,97.38
2018-10-12T07:01:03.002Z,97.76
2018-10-12T07:02:03.652Z,97.47
2018-10-12T07:03:24.495Z,97.28
2018-10-12T07:04:24.979Z,97.47
2018-10-12T07:05:24.480Z,97.19
2018-10-12T07:06:24.887Z,96.80
2018-10-12T07:07:45.718Z,96.75
2018-10-12T07:08:46.236Z,96.75
2018-10-12T07:09:46.781Z,96.27
2018-10-12T07:10:46.279Z,95.07
2018-10-12T07:11:46.617Z,93.91
2018-10-12T07:12:46.184Z,93.38
2018-10-12T07:13:46.776Z,92.22
2018-10-12T07:14:46.141Z,91.41
2018-10-12T07:15:46.655Z,90.58
2018-10-12T07:16:46.350Z,89.04
2018-10-12T07:17:46.594Z,88.08
2018-10-12T07:18:46.038Z,88.02
2018-10-12T07:20:08.152Z,87.06
2018-10-12T07:21:08.531Z,86.39
2018-10-12T07:22:08.147Z,86.39
2018-10-12T07:23:08.918Z,85.81
2018-10-12T07:24:08.500Z,85.71
2018-10-12T07:25:09.073Z,85.56
2018-10-12T07:26:08.695Z,85.27
2018-10-12T07:27:29.331Z,85.37
2018-10-12T07:28:29.986Z,84.35
2018-10-12T07:29:30.344Z,83.48
2018-10-12T07:30:29.887Z,83.19
2018-10-12T07:31:29.430Z,83.09
2018-10-12T07:32:30.133Z,83.09
2018-10-12T07:33:29.586Z,83.19
2018-10-12T07:34:30.220Z,83.87
2018-10-12T07:35:29.624Z,83.87
2018-10-12T07:36:30.132Z,83.87
2018-10-12T07:37:51.369Z,83.87
2018-10-12T07:39:13.162Z,84.21
2018-10-12T07:40:13.595Z,84.41
2018-10-12T07:41:13.847Z,84.50
2018-10-12T07:42:35.155Z,85.81
2018-10-12T07:44:40.028Z,86.96
2018-10-12T07:45:40.639Z,87.40
2018-10-12T07:46:40.262Z,87.60
2018-10-12T07:48:03.067Z,87.88
2018-10-12T07:49:02.723Z,87.98
2018-10-12T07:50:02.446Z,88.65
2018-10-12T07:51:03.148Z,88.71
2018-10-12T07:52:23.852Z,89.58
2018-10-12T07:53:24.353Z,90.40
2018-10-12T07:54:24.791Z,90.88
2018-10-12T07:55:24.519Z,90.97
2018-10-12T07:56:45.635Z,91.99
2018-10-12T07:57:46.134Z,92.38
2018-10-12T07:58:46.482Z,93.24
2018-10-12T07:59:46.063Z,94.20
2018-10-12T08:00:46.633Z,94.40
2018-10-12T08:01:46.190Z,95.26
2018-10-12T08:02:45.674Z,95.65
2018-10-12T08:04:07.669Z,95.60
2018-10-12T08:05:08.359Z,95.60
2018-10-12T08:06:29.084Z,95.79
2018-10-12T08:07:29.488Z,95.60
2018-10-12T08:08:29.027Z,96.37
2018-10-12T08:09:29.472Z,96.85
2018-10-12T08:10:51.234Z,97.04
2018-10-12T08:11:51.635Z,96.94
2018-10-12T08:12:51.912Z,97.62
2018-10-12T08:13:51.562Z,97.52
2018-10-12T08:14:51.410Z,98.19
2018-10-12T08:15:52.120Z,98.77
2018-10-12T08:16:52.047Z,98.39
2018-10-12T08:17:51.520Z,98.58
2018-10-12T08:18:52.120Z,97.76
2018-10-12T08:19:51.676Z,98.05
2018-10-12T08:20:52.098Z,98.44
2018-10-12T08:22:12.712Z,99.68
2018-10-12T08:23:13.192Z,98.91
2018-10-12T08:24:35.788Z,97.76
2018-10-12T08:25:36.401Z,97.96
2018-10-12T08:26:35.801Z,98.10
2018-10-12T08:27:36.358Z,98.00
2018-10-12T08:28:35.743Z,98.58
2018-10-12T08:29:36.208Z,99.35
2018-10-12T08:30:36.740Z,98.96
2018-10-12T08:31:36.612Z,99.16
2018-10-12T08:32:36.217Z,99.99
2018-10-12T08:33:36.630Z,99.26
2018-10-12T08:34:36.056Z,98.58
2018-10-12T08:35:36.443Z,97.42
2018-10-12T08:36:36.003Z,97.71
2018-10-12T08:37:58.185Z,98.24
2018-10-12T08:38:58.541Z,97.47
2018-10-12T08:39:58.973Z,96.42
2018-10-12T08:40:58.562Z,95.55
2018-10-12T08:41:59.051Z,94.54
2018-10-12T08:42:58.750Z,93.67
2018-10-12T08:43:58.265Z,93.33
2018-10-12T08:44:58.855Z,92.03
2018-10-12T08:46:19.824Z,90.53
2018-10-12T08:47:20.608Z,88.45
2018-10-12T08:48:41.461Z,85.89
2018-10-12T08:49:42.019Z,84.58
2018-10-12T08:50:41.609Z,82.89
2018-10-12T08:51:42.366Z,80.99
2018-10-12T08:52:41.869Z,80.46
2018-10-12T08:53:42.479Z,80.26
2018-10-12T08:54:42.135Z,78.85
2018-10-12T08:55:41.741Z,77.44
2018-10-12T08:56:42.946Z,76.95
2018-10-12T08:57:42.318Z,76.37
2018-10-12T08:58:42.134Z,75.79
2018-10-12T08:59:41.654Z,75.15
2018-10-12T09:00:42.132Z,73.69
2018-10-12T09:01:41.748Z,74.08
2018-10-12T09:02:42.047Z,73.93
2018-10-12T09:03:41.556Z,73.28
2018-10-12T09:04:42.463Z,72.31
2018-10-12T09:06:03.667Z,71.58
2018-10-12T09:07:04.311Z,70.64
2018-10-12T09:08:03.872Z,69.76
2018-10-12T09:09:04.663Z,70.15
2018-10-12T09:10:04.177Z,69.70
2018-10-12T09:11:03.809Z,69.02
2018-10-12T09:12:04.397Z,68.38
2018-10-12T09:13:04.191Z,67.50
2018-10-12T09:14:03.569Z,67.54
2018-10-12T09:15:04.476Z,66.72
2018-10-12T09:16:04.032Z,66.92
2018-10-12T09:17:26.653Z,67.24
2018-10-12T09:18:26.053Z,66.21
2018-10-12T09:19:26.543Z,66.08
2018-10-12T09:20:27.094Z,66.47
2018-10-12T09:21:26.876Z,66.40
2018-10-12T09:22:26.614Z,65.75
2018-10-12T09:23:26.278Z,65.30
2018-10-12T09:24:26.849Z,64.42
2018-10-12T09:25:26.228Z,64.23
2018-10-12T09:26:26.984Z,64.04
2018-10-12T09:27:50.967Z,63.19
2018-10-12T09:28:48.548Z,63.26
2018-10-12T09:29:49.030Z,63.97
2018-10-12T09:30:48.615Z,65.20
2018-10-12T09:31:49.133Z,66.44
2018-10-12T09:32:48.591Z,67.21
2018-10-12T09:33:48.997Z,67.41
2018-10-12T09:34:48.651Z,66.96
2018-10-12T09:35:48.248Z,66.21
2018-10-12T09:36:48.951Z,66.40
2018-10-12T09:37:48.682Z,65.59
2018-10-12T09:38:49.110Z,66.56
2018-10-12T09:40:53.396Z,65.69
2018-10-12T09:41:54.047Z,64.49
2018-10-12T09:42:54.331Z,62.86
2018-10-12T09:44:15.848Z,62.12
2018-10-12T09:45:16.199Z,61.46
2018-10-12T09:46:38.123Z,60.36
2018-10-12T09:47:59.968Z,60.88
2018-10-12T09:49:44.915Z,60.06
2018-10-12T09:50:45.580Z,58.89
2018-10-12T09:51:44.956Z,58.30
2018-10-12T09:52:45.601Z,58.50
2018-10-12T09:53:44.998Z,57.81
2018-10-12T09:54:45.665Z,58.01
2018-10-12T09:55:45.322Z,58.03
2018-10-12T09:56:44.972Z,57.42
2018-10-12T09:57:45.581Z,57.78
2018-10-12T09:58:45.447Z,57.98
2018-10-12T09:59:45.111Z,58.63
2018-10-12T10:00:44.943Z,59.22
2018-10-12T10:01:45.700Z,59.02
2018-10-12T10:03:06.804Z,59.12
2018-10-12T10:04:07.441Z,58.86
2018-10-12T10:05:07.256Z,58.20
2018-10-12T10:06:07.032Z,57.81
2018-10-12T10:07:07.668Z,57.35
2018-10-12T10:08:07.549Z,56.99
2018-10-12T10:09:07.348Z,56.30
2018-10-12T10:10:07.347Z,56.40
2018-10-12T10:11:06.933Z,56.33
2018-10-12T10:12:07.592Z,55.81
2018-10-12T10:13:07.240Z,56.50
2018-10-12T10:14:07.625Z,56.10
2018-10-12T10:15:07.488Z,56.01
2018-10-12T10:16:28.517Z,56.40
2018-10-12T10:17:28.975Z,56.27
2018-10-12T10:18:29.418Z,56.84
2018-10-12T10:19:28.799Z,57.32
2018-10-12T10:20:29.319Z,57.15
2018-10-12T10:21:28.799Z,56.79
2018-10-12T10:22:29.190Z,55.88
2018-10-12T10:23:28.780Z,57.03
2018-10-12T10:24:29.241Z,57.59
2018-10-12T10:25:28.827Z,57.42
2018-10-12T10:26:29.349Z,57.13
2018-10-12T10:27:28.758Z,57.52
2018-10-12T10:28:29.318Z,57.06
2018-10-12T10:29:29.052Z,56.93
2018-10-12T10:30:28.952Z,56.76
2018-10-12T10:31:50.249Z,57.15
2018-10-12T10:32:51.028Z,56.96
2018-10-12T10:33:50.602Z,56.50
2018-10-12T10:34:51.083Z,55.81
2018-10-12T10:36:12.314Z,56.30
2018-10-12T10:37:12.911Z,56.33
2018-10-12T10:38:12.233Z,55.57
2018-10-12T10:39:13.532Z,54.82
2018-10-12T10:40:13.138Z,54.21
2018-10-12T10:41:12.610Z,54.69
2018-10-12T10:42:13.226Z,54.57
2018-10-12T10:43:12.889Z,55.35
2018-10-12T10:44:12.604Z,55.38
2018-10-12T10:45:13.268Z,54.89
2018-10-12T10:46:12.925Z,54.11
2018-10-12T10:47:12.303Z,54.82
2018-10-12T10:48:12.757Z,54.75
2018-10-12T10:49:13.807Z,53.67
2018-10-12T10:50:35.048Z,53.57
2018-10-12T10:51:37.026Z,53.57
2018-10-12T10:52:35.671Z,52.98
2018-10-12T10:53:56.892Z,52.96
2018-10-12T10:54:58.953Z,53.45
2018-10-12T10:55:57.519Z,53.16
2018-10-12T10:56:57.258Z,53.25
2018-10-12T10:57:56.970Z,53.74
2018-10-12T10:58:57.710Z,54.30
2018-10-12T10:59:57.414Z,54.91
2018-10-12T11:00:57.154Z,53.64
2018-10-12T11:01:57.855Z,53.86
2018-10-12T11:02:57.506Z,53.18
2018-10-12T11:03:57.098Z,53.47
2018-10-12T11:04:57.923Z,53.45
2018-10-12T11:05:57.565Z,53.33
2018-10-12T11:06:57.291Z,54.01
2018-10-12T11:07:56.950Z,54.40
2018-10-12T11:08:57.405Z,54.69
2018-10-12T11:10:18.951Z,54.82
2018-10-12T11:11:19.613Z,54.23
2018-10-12T11:12:19.321Z,53.57
2018-10-12T11:13:40.845Z,54.03
2018-10-12T11:14:41.320Z,54.33
2018-10-12T11:15:41.188Z,53.47
2018-10-12T11:16:40.952Z,53.28
2018-10-12T11:17:41.626Z,52.72
2018-10-12T11:18:41.170Z,52.89
2018-10-12T11:19:41.021Z,53.30
2018-10-12T11:20:40.813Z,52.42
2018-10-12T11:22:46.392Z,52.59
2018-10-12T11:23:46.911Z,52.69
2018-10-12T11:24:46.803Z,53.08
2018-10-12T11:25:46.474Z,52.96
2018-10-12T11:26:47.144Z,53.78
2018-10-12T11:27:46.737Z,54.64
2018-10-12T11:28:46.364Z,55.13
2018-10-12T11:29:47.060Z,54.93
2018-10-12T11:30:46.632Z,55.22
2018-10-12T11:31:47.202Z,55.59
2018-10-12T11:32:47.056Z,55.59
2018-10-12T11:33:46.669Z,55.91
2018-10-12T11:35:08.237Z,55.26
2018-10-12T11:36:08.959Z,55.08
2018-10-12T11:37:08.735Z,54.60
2018-10-12T11:38:08.450Z,54.60
2018-10-12T11:39:08.052Z,54.40
2018-10-12T11:40:09.822Z,54.11
2018-10-12T11:41:08.708Z,53.84
2018-10-12T11:42:08.524Z,53.38
2018-10-12T11:43:08.119Z,53.57
2018-10-12T11:44:31.368Z,52.91
2018-10-12T11:45:32.357Z,52.23
2018-10-12T11:47:14.694Z,52.20
2018-10-12T11:48:15.363Z,52.89
2018-10-12T11:49:15.171Z,52.86
2018-10-12T11:50:15.065Z,52.96
2018-10-12T11:51:14.771Z,53.62
2018-10-12T11:52:15.362Z,53.62
2018-10-12T11:53:15.006Z,53.45
2018-10-12T11:54:14.813Z,53.64
2018-10-12T11:55:15.951Z,52.76
2018-10-12T11:56:14.475Z,52.86
2018-10-12T11:57:58.466Z,53.78
2018-10-12T11:58:59.046Z,54.28
2018-10-12T11:59:58.794Z,54.08
2018-10-12T12:00:58.446Z,54.25
2018-10-12T12:01:59.347Z,55.03
2018-10-12T12:02:59.856Z,54.96
2018-10-12T12:04:01.149Z,54.79
2018-10-12T12:04:59.090Z,54.11
2018-10-12T12:05:58.605Z,53.81
2018-10-12T12:06:58.218Z,54.01
2018-10-12T12:07:58.763Z,54.01
2018-10-12T12:08:58.288Z,54.60
2018-10-12T12:09:58.741Z,54.77
2018-10-12T12:10:58.450Z,54.30
2018-10-12T12:13:25.745Z,52.98
2018-10-12T12:14:25.346Z,52.89
2018-10-12T12:15:25.888Z,53.35
2018-10-12T12:16:46.839Z,53.98
2018-10-12T12:18:52.192Z,54.83
2018-10-12T12:19:52.822Z,55.20
2018-10-12T12:20:52.420Z,55.69
2018-10-12T12:21:53.091Z,55.91
2018-10-12T12:22:52.646Z,55.16
2018-10-12T12:23:53.284Z,55.13
2018-10-12T12:24:52.929Z,55.32
2018-10-12T12:25:52.494Z,54.67
2018-10-12T12:27:14.590Z,54.91
2018-10-12T12:28:15.183Z,56.05
2018-10-12T12:29:14.677Z,56.51
2018-10-12T12:30:15.135Z,57.75
2018-10-12T12:31:15.831Z,58.18
2018-10-12T12:32:15.552Z,59.62
2018-10-12T12:33:15.111Z,59.81
2018-10-12T12:34:15.339Z,59.94
2018-10-12T12:35:15.516Z,59.55
2018-10-12T12:36:37.579Z,58.77
2018-10-12T12:37:43.746Z,59.06
2018-10-12T12:38:37.570Z,59.35
2018-10-12T12:39:37.514Z,59.19
2018-10-12T12:40:37.330Z,58.53
2018-10-12T12:42:00.030Z,58.37
2018-10-12T12:43:00.765Z,57.81
2018-10-12T12:44:00.612Z,57.03
2018-10-12T12:45:00.106Z,56.76
2018-10-12T12:46:00.772Z,56.18
2018-10-12T12:47:22.298Z,55.98
2018-10-12T12:48:23.460Z,56.08
2018-10-12T12:49:22.625Z,56.18
2018-10-12T12:50:22.652Z,55.88
2018-10-12T12:51:44.442Z,56.37
2018-10-12T12:52:45.091Z,56.70
2018-10-12T12:53:44.981Z,56.20
2018-10-12T12:55:06.138Z,56.10
2018-10-12T12:56:27.402Z,55.42
2018-10-12T12:57:27.894Z,55.81
2018-10-12T12:58:27.502Z,55.81
2018-10-12T12:59:27.898Z,55.52
2018-10-12T13:00:27.739Z,55.32
2018-10-12T13:01:28.139Z,55.20
2018-10-12T13:02:28.202Z,55.62
2018-10-12T13:03:27.820Z,55.69
2018-10-12T13:04:27.327Z,56.57
2018-10-12T13:05:28.146Z,56.84
2018-10-12T13:06:27.866Z,56.27
2018-10-12T13:07:27.742Z,56.35
2018-10-12T13:08:28.355Z,56.45
2018-10-12T13:09:28.052Z,56.25
2018-10-12T13:10:28.221Z,56.68
2018-10-12T13:11:27.773Z,57.82
2018-10-12T13:12:27.754Z,58.60
2018-10-12T13:13:27.499Z,58.99
2018-10-12T13:15:11.284Z,58.37
2018-10-12T13:16:11.939Z,57.13
2018-10-12T13:17:11.769Z,56.22
2018-10-12T13:18:11.517Z,56.90
2018-10-12T13:19:54.699Z,57.36
2018-10-12T13:20:55.397Z,58.09
2018-10-12T13:22:37.882Z,59.55
2018-10-12T13:23:39.323Z,59.06
2018-10-12T13:24:39.007Z,58.97
2018-10-12T13:25:38.938Z,59.23
2018-10-12T13:26:38.601Z,60.00
2018-10-12T13:27:38.638Z,60.30
2018-10-12T13:28:38.535Z,59.91
2018-10-12T13:29:38.023Z,60.17
2018-10-12T13:30:38.904Z,60.69
2018-10-12T13:31:38.445Z,60.59
2018-10-12T13:32:39.037Z,60.30
2018-10-12T13:33:38.749Z,60.10
2018-10-12T13:34:38.399Z,60.27
2018-10-12T13:35:38.036Z,60.92
2018-10-12T13:36:38.809Z,61.51
2018-10-12T13:37:38.303Z,62.26